createdAt,value
2023-08-12T00:01:51.451Z,94338.94
2023-08-12T00:04:17.835Z,94339.94
2023-08-12T00:06:44.382Z,94341.28
2023-08-12T00:09:16.002Z,94329.44
2023-08-12T00:11:52.402Z,94337.19
2023-08-12T00:14:18.766Z,94333.25
2023-08-12T00:16:45.133Z,94329.00
2023-08-12T00:19:11.498Z,94330.47
2023-08-12T00:21:37.886Z,94329.28
2023-08-12T00:24:05.420Z,94325.28
2023-08-12T00:26:31.806Z,94325.75
2023-08-12T00:28:58.191Z,94311.22
2023-08-12T00:31:24.550Z,94318.16
2023-08-12T00:33:51.953Z,94318.31
2023-08-12T00:36:18.380Z,94308.88
2023-08-12T00:38:45.314Z,94320.34
2023-08-12T00:41:11.720Z,94317.00
2023-08-12T00:43:38.134Z,94315.22
2023-08-12T00:46:05.297Z,94313.03
2023-08-12T00:48:31.805Z,94304.53
2023-08-12T00:50:58.152Z,94319.16
2023-08-12T00:53:24.808Z,94313.28
2023-08-12T00:55:51.217Z,94302.75
2023-08-12T00:58:17.725Z,94307.44
2023-08-12T01:00:44.079Z,94301.41
2023-08-12T01:03:10.889Z,94303.47
2023-08-12T01:05:39.296Z,94303.88
2023-08-12T01:08:07.693Z,94301.91
2023-08-12T01:10:35.845Z,94306.38
2023-08-12T01:13:08.269Z,94297.03
2023-08-12T01:15:35.306Z,94294.53
2023-08-12T01:18:01.740Z,94287.22
2023-08-12T01:20:31.499Z,94291.63
2023-08-12T01:22:59.890Z,94292.63
2023-08-12T01:25:26.676Z,94288.41
2023-08-12T01:27:53.176Z,94296.59
2023-08-12T01:30:27.124Z,94285.75
2023-08-12T01:32:56.218Z,94285.44
2023-08-12T01:35:26.188Z,94276.56
2023-08-12T01:37:53.541Z,94280.28
2023-08-12T01:40:20.555Z,94279.47
2023-08-12T01:42:47.477Z,94275.47
2023-08-12T01:45:13.976Z,94283.19
2023-08-12T01:47:43.640Z,94284.03
2023-08-12T01:50:11.577Z,94275.16
2023-08-12T01:52:37.938Z,94278.44
2023-08-12T01:55:07.567Z,94272.00
2023-08-12T01:57:34.034Z,94276.25
2023-08-12T02:00:01.708Z,94266.75
2023-08-12T02:02:28.063Z,94266.97
2023-08-12T02:04:54.678Z,94270.44
2023-08-12T02:07:21.007Z,94267.66
2023-08-12T02:09:47.379Z,94266.22
2023-08-12T02:12:13.715Z,94266.06
2023-08-12T02:14:40.145Z,94268.53
2023-08-12T02:17:06.984Z,94264.91
2023-08-12T02:19:34.530Z,94265.75
2023-08-12T02:22:02.723Z,94273.03
2023-08-12T02:24:29.177Z,94265.00
2023-08-12T02:26:55.526Z,94263.78
2023-08-12T02:29:21.886Z,94268.66
2023-08-12T02:31:50.439Z,94264.63
2023-08-12T02:34:16.933Z,94271.50
2023-08-12T02:36:43.646Z,94255.75
2023-08-12T02:39:10.351Z,94261.00
2023-08-12T02:41:36.692Z,94260.56
2023-08-12T02:44:03.544Z,94263.41
2023-08-12T02:46:30.015Z,94259.75
2023-08-12T02:48:56.341Z,94254.91
2023-08-12T02:51:22.753Z,94249.72
2023-08-12T02:53:49.099Z,94259.41
2023-08-12T02:56:19.447Z,94253.41
2023-08-12T02:58:45.796Z,94253.81
2023-08-12T03:01:12.227Z,94250.56
2023-08-12T03:03:38.636Z,94245.75
2023-08-12T03:06:05.131Z,94249.41
2023-08-12T03:08:31.532Z,94248.19
2023-08-12T03:11:01.944Z,94246.59
2023-08-12T03:13:29.047Z,94241.34
2023-08-12T03:15:55.563Z,94246.59
2023-08-12T03:18:22.167Z,94242.34
2023-08-12T03:20:48.569Z,94240.56
2023-08-12T03:23:15.243Z,94247.81
2023-08-12T03:25:42.387Z,94241.69
2023-08-12T03:28:08.947Z,94236.78
2023-08-12T03:30:35.312Z,94238.91
2023-08-12T03:33:01.675Z,94241.34
2023-08-12T03:35:28.035Z,94236.88
2023-08-12T03:37:55.149Z,94237.69
2023-08-12T03:40:21.634Z,94235.69
2023-08-12T03:42:48.344Z,94234.22
2023-08-12T03:45:15.347Z,94231.25
2023-08-12T03:47:41.795Z,94234.72
2023-08-12T03:50:08.413Z,94234.53
2023-08-12T03:52:34.820Z,94234.53
2023-08-12T03:55:01.220Z,94243.00
2023-08-12T03:57:27.579Z,94235.72
2023-08-12T03:59:53.918Z,94237.34
2023-08-12T04:02:20.266Z,94235.31
2023-08-12T04:04:46.658Z,94232.84
2023-08-12T04:07:13.458Z,94225.63
2023-08-12T04:09:40.019Z,94237.28
2023-08-12T04:12:06.533Z,94232.81
2023-08-12T04:14:32.906Z,94229.16
2023-08-12T04:16:59.391Z,94242.44
2023-08-12T04:19:25.850Z,94238.22
2023-08-12T04:21:52.383Z,94245.06
2023-08-12T04:24:18.728Z,94243.66
2023-08-12T04:26:45.170Z,94240.44
2023-08-12T04:29:11.495Z,94240.44
2023-08-12T04:31:38.118Z,94239.97
2023-08-12T04:34:05.099Z,94239.81
2023-08-12T04:36:31.479Z,94246.44
2023-08-12T04:38:57.842Z,94240.97
2023-08-12T04:41:25.266Z,94235.88
2023-08-12T04:43:51.698Z,94236.91
2023-08-12T04:46:18.957Z,94237.25
2023-08-12T04:48:45.310Z,94237.84
2023-08-12T04:51:11.748Z,94234.56
2023-08-12T04:53:38.117Z,94233.47
2023-08-12T04:56:04.555Z,94232.41
2023-08-12T04:58:30.934Z,94232.72
2023-08-12T05:00:58.197Z,94233.03
2023-08-12T05:03:24.878Z,94237.38
2023-08-12T05:05:51.947Z,94230.00
2023-08-12T05:08:18.897Z,94226.81
2023-08-12T05:10:48.054Z,94230.91
2023-08-12T05:13:14.419Z,94232.41
2023-08-12T05:15:40.970Z,94225.38
2023-08-12T05:18:07.602Z,94233.31
2023-08-12T05:20:33.992Z,94236.47
2023-08-12T05:23:00.365Z,94233.09
2023-08-12T05:25:26.905Z,94230.50
2023-08-12T05:27:53.242Z,94236.47
2023-08-12T05:30:19.628Z,94222.63
2023-08-12T05:32:54.116Z,94227.00
2023-08-12T05:35:20.515Z,94229.31
2023-08-12T05:37:46.934Z,94226.97
2023-08-12T05:40:13.311Z,94221.94
2023-08-12T05:42:39.858Z,94231.72
2023-08-12T05:45:08.601Z,94226.34
2023-08-12T05:47:35.350Z,94231.63
2023-08-12T05:50:01.732Z,94222.34
2023-08-12T05:52:28.196Z,94225.91
2023-08-12T05:54:54.573Z,94228.91
2023-08-12T05:57:20.978Z,94229.34
2023-08-12T05:59:47.318Z,94231.06
2023-08-12T06:02:13.985Z,94226.44
2023-08-12T06:04:40.612Z,94224.03
2023-08-12T06:07:06.970Z,94218.41
2023-08-12T06:09:33.343Z,94218.69
2023-08-12T06:11:59.681Z,94222.06
2023-08-12T06:14:26.038Z,94220.91
2023-08-12T06:16:59.402Z,94217.88
2023-08-12T06:19:25.958Z,94213.28
2023-08-12T06:21:52.953Z,94215.56
2023-08-12T06:24:19.411Z,94217.66
2023-08-12T06:26:45.842Z,94216.75
2023-08-12T06:29:12.197Z,94224.44
2023-08-12T06:31:38.663Z,94216.94
2023-08-12T06:34:05.223Z,94213.91
2023-08-12T06:36:31.648Z,94211.97
2023-08-12T06:38:58.076Z,94214.09
2023-08-12T06:41:24.469Z,94204.53
2023-08-12T06:43:51.112Z,94199.47
2023-08-12T06:46:18.705Z,94196.97
2023-08-12T06:48:45.089Z,94197.19
2023-08-12T06:51:11.596Z,94196.19
2023-08-12T06:53:39.300Z,94201.13
2023-08-12T06:56:05.903Z,94198.38
2023-08-12T06:58:32.295Z,94194.63
2023-08-12T07:01:00.294Z,94202.63
2023-08-12T07:03:42.194Z,94204.44
2023-08-12T07:06:08.638Z,94203.44
2023-08-12T07:08:41.199Z,94197.59
2023-08-12T07:11:07.679Z,94204.66
2023-08-12T07:13:53.482Z,94209.03
2023-08-12T07:16:20.861Z,94208.53
2023-08-12T07:18:47.350Z,94208.53
2023-08-12T07:21:14.733Z,94205.53
2023-08-12T07:24:02.100Z,94213.13
2023-08-12T07:26:30.656Z,94202.63
2023-08-12T07:29:05.383Z,94200.59
2023-08-12T07:31:32.796Z,94200.13
2023-08-12T07:34:08.266Z,94196.56
2023-08-12T07:36:34.708Z,94204.06
2023-08-12T07:39:15.376Z,94199.91
2023-08-12T07:41:41.988Z,94206.84
2023-08-12T07:44:13.505Z,94210.09
2023-08-12T07:46:41.876Z,94206.94
2023-08-12T07:49:14.500Z,94207.72
2023-08-12T07:51:59.508Z,94205.91
2023-08-12T07:54:31.024Z,94210.16
2023-08-12T07:57:05.513Z,94202.19
2023-08-12T07:59:35.987Z,94203.50
2023-08-12T08:02:09.378Z,94213.38
2023-08-12T08:04:35.793Z,94206.97
2023-08-12T08:07:05.292Z,94214.91
2023-08-12T08:09:34.784Z,94212.28
2023-08-12T08:12:01.790Z,94208.50
2023-08-12T08:14:35.327Z,94201.03
2023-08-12T08:17:01.748Z,94209.06
2023-08-12T08:19:29.840Z,94216.53
2023-08-12T08:21:56.564Z,94215.41
2023-08-12T08:24:22.946Z,94213.28
2023-08-12T08:26:49.372Z,94214.59
2023-08-12T08:29:15.721Z,94205.69
2023-08-12T08:31:42.136Z,94205.69
2023-08-12T08:34:08.577Z,94207.81
2023-08-12T08:36:35.008Z,94201.44
2023-08-12T08:39:01.400Z,94208.25
2023-08-12T08:41:28.748Z,94207.22
2023-08-12T08:44:10.616Z,94204.50
2023-08-12T08:46:37.149Z,94206.13
2023-08-12T08:49:05.182Z,94206.84
2023-08-12T08:51:32.902Z,94208.66
2023-08-12T08:54:03.918Z,94203.22
2023-08-12T08:56:31.841Z,94213.91
2023-08-12T08:58:59.953Z,94212.31
2023-08-12T09:01:27.949Z,94213.31
2023-08-12T09:03:54.668Z,94215.63
2023-08-12T09:06:22.327Z,94212.66
2023-08-12T09:08:49.348Z,94210.22
2023-08-12T09:11:18.049Z,94198.25
2023-08-12T09:13:44.486Z,94206.31
2023-08-12T09:16:11.559Z,94211.56
2023-08-12T09:18:38.947Z,94207.72
2023-08-12T09:21:05.353Z,94214.88
2023-08-12T09:23:35.859Z,94215.31
2023-08-12T09:26:02.500Z,94219.47
2023-08-12T09:28:29.685Z,94214.38
2023-08-12T09:30:58.121Z,94216.88
2023-08-12T09:33:25.291Z,94224.41
2023-08-12T09:35:51.646Z,94208.31
2023-08-12T09:38:17.996Z,94210.72
2023-08-12T09:40:45.311Z,94221.91
2023-08-12T09:43:14.232Z,94207.56
2023-08-12T09:45:41.112Z,94200.56
2023-08-12T09:48:09.645Z,94193.31
2023-08-12T09:50:37.424Z,94198.28
2023-08-12T09:53:04.600Z,94195.19
2023-08-12T09:55:32.744Z,94189.81
2023-08-12T09:58:00.340Z,94199.97
2023-08-12T10:00:26.772Z,94199.31
2023-08-12T10:02:54.611Z,94191.47
2023-08-12T10:05:27.247Z,94203.53
2023-08-12T10:07:54.154Z,94200.75
2023-08-12T10:10:21.403Z,94208.81
2023-08-12T10:12:49.161Z,94199.97
2023-08-12T10:15:16.542Z,94202.94
2023-08-12T10:17:47.204Z,94205.34
2023-08-12T10:20:15.184Z,94200.94
2023-08-12T10:22:43.924Z,94199.75
2023-08-12T10:25:10.374Z,94199.16
2023-08-12T10:27:42.451Z,94196.97
2023-08-12T10:30:11.341Z,94194.00
2023-08-12T10:32:43.361Z,94202.34
2023-08-12T10:35:16.999Z,94194.16
2023-08-12T10:37:43.648Z,94197.69
2023-08-12T10:40:20.609Z,94200.75
2023-08-12T10:42:49.775Z,94202.47
2023-08-12T10:45:17.177Z,94184.81
2023-08-12T10:47:52.818Z,94204.19
2023-08-12T10:50:20.972Z,94194.16
2023-08-12T10:52:56.575Z,94197.59
2023-08-12T10:55:29.777Z,94200.16
2023-08-12T10:57:59.378Z,94200.94
2023-08-12T11:00:42.542Z,94200.16
2023-08-12T11:03:21.306Z,94202.06
2023-08-12T11:05:48.871Z,94202.16
2023-08-12T11:08:43.855Z,94207.34
2023-08-12T11:11:20.382Z,94200.56
2023-08-12T11:13:58.811Z,94198.97
2023-08-12T11:16:43.991Z,94201.75
2023-08-12T11:19:26.646Z,94210.72
2023-08-12T11:22:01.146Z,94202.34
2023-08-12T11:24:41.720Z,94203.09
2023-08-12T11:27:15.214Z,94209.56
2023-08-12T11:29:54.975Z,94205.09
2023-08-12T11:32:21.678Z,94204.31
2023-08-12T11:34:49.582Z,94206.50
2023-08-12T11:37:17.398Z,94206.50
2023-08-12T11:39:52.384Z,94208.59
2023-08-12T11:42:18.755Z,94202.97
2023-08-12T11:44:45.106Z,94203.94
2023-08-12T11:47:11.468Z,94208.97
2023-08-12T11:49:41.868Z,94202.78
2023-08-12T11:52:10.193Z,94208.88
2023-08-12T11:54:39.094Z,94213.66
2023-08-12T11:57:05.715Z,94210.13
2023-08-12T11:59:32.455Z,94204.44
2023-08-12T12:01:58.854Z,94200.88
2023-08-12T12:04:25.296Z,94211.31
2023-08-12T12:06:51.794Z,94217.41
2023-08-12T12:09:19.476Z,94222.84
2023-08-12T12:11:53.295Z,94223.84
2023-08-12T12:14:21.963Z,94220.28
2023-08-12T12:16:49.861Z,94224.41
2023-08-12T12:19:16.843Z,94223.44
2023-08-12T12:21:43.873Z,94229.59
2023-08-12T12:24:10.372Z,94222.72
2023-08-12T12:26:37.126Z,94235.50
2023-08-12T12:29:04.975Z,94232.88
2023-08-12T12:31:32.737Z,94234.22
2023-08-12T12:33:59.133Z,94231.63
2023-08-12T12:36:29.667Z,94230.75
2023-08-12T12:39:07.653Z,94226.63
2023-08-12T12:41:37.182Z,94232.50
2023-08-12T12:44:04.697Z,94231.91
2023-08-12T12:46:37.197Z,94237.69
2023-08-12T12:49:04.611Z,94224.75
2023-08-12T12:51:31.996Z,94227.84
2023-08-12T12:53:58.435Z,94222.16
2023-08-12T12:56:24.981Z,94218.06
2023-08-12T12:58:51.553Z,94210.75
2023-08-12T13:01:17.943Z,94203.34
2023-08-12T13:03:44.904Z,94203.44
2023-08-12T13:06:11.416Z,94213.91
2023-08-12T13:08:43.677Z,94213.59
2023-08-12T13:11:11.119Z,94213.22
2023-08-12T13:13:37.771Z,94214.69
2023-08-12T13:16:05.398Z,94216.25
2023-08-12T13:18:35.468Z,94215.13
2023-08-12T13:21:01.831Z,94223.22
2023-08-12T13:23:28.273Z,94217.84
2023-08-12T13:25:54.688Z,94220.31
2023-08-12T13:28:21.208Z,94217.72
2023-08-12T13:30:48.559Z,94211.47
2023-08-12T13:33:15.013Z,94207.06
2023-08-12T13:35:41.397Z,94217.78
2023-08-12T13:38:08.769Z,94207.28
2023-08-12T13:40:36.135Z,94222.97
2023-08-12T13:43:03.299Z,94212.44
2023-08-12T13:45:30.132Z,94206.75
2023-08-12T13:47:56.741Z,94199.56
2023-08-12T13:50:24.320Z,94206.09
2023-08-12T13:52:51.616Z,94195.78
2023-08-12T13:55:18.173Z,94190.81
2023-08-12T13:57:44.901Z,94193.03
2023-08-12T14:00:12.464Z,94197.28
2023-08-12T14:02:40.567Z,94195.59
2023-08-12T14:05:07.731Z,94187.25
2023-08-12T14:07:34.178Z,94188.66
2023-08-12T14:31:31.593Z,94181.63
2023-08-12T14:34:04.421Z,94175.28
2023-08-12T14:36:32.829Z,94161.97
2023-08-12T14:39:06.334Z,94163.75
2023-08-12T14:41:33.978Z,94165.69
2023-08-12T14:44:07.236Z,94159.19
2023-08-12T14:46:43.789Z,94157.25
2023-08-12T14:49:10.285Z,94146.63
2023-08-12T14:51:41.671Z,94142.13
2023-08-12T14:54:08.842Z,94135.75
2023-08-12T14:56:36.236Z,94132.66
2023-08-12T14:59:03.269Z,94135.41
2023-08-12T15:01:29.616Z,94122.97
2023-08-12T15:03:57.110Z,94122.16
2023-08-12T15:06:23.549Z,94118.06
2023-08-12T15:08:50.246Z,94115.69
2023-08-12T15:11:16.894Z,94113.09
2023-08-12T15:13:43.321Z,94119.53
2023-08-12T15:16:12.112Z,94119.16
2023-08-12T15:18:38.540Z,94126.72
2023-08-12T15:21:04.892Z,94117.06
2023-08-12T15:23:31.680Z,94113.91
2023-08-12T15:25:58.026Z,94113.72
2023-08-12T15:28:24.461Z,94124.63
2023-08-12T15:30:51.087Z,94105.69
2023-08-12T15:33:17.839Z,94114.94
2023-08-12T15:35:44.696Z,94112.22
2023-08-12T15:38:12.050Z,94103.28
2023-08-12T15:40:41.655Z,94095.16
2023-08-12T15:43:07.991Z,94105.84
2023-08-12T15:45:34.331Z,94101.22
2023-08-12T15:48:00.800Z,94091.59
2023-08-12T15:50:35.696Z,94087.50
2023-08-12T15:53:02.080Z,94079.69
2023-08-12T15:55:28.769Z,94083.53
2023-08-12T15:57:55.262Z,94082.41
2023-08-12T16:00:21.604Z,94085.13
2023-08-12T16:02:49.151Z,94084.16
2023-08-12T16:05:18.426Z,94086.88
2023-08-12T16:07:44.872Z,94091.41
2023-08-12T16:10:14.249Z,94092.19
2023-08-12T16:12:40.750Z,94095.06
2023-08-12T16:15:07.662Z,94090.41
2023-08-12T16:17:34.038Z,94096.66
2023-08-12T16:20:00.415Z,94095.78
2023-08-12T16:22:26.749Z,94106.28
2023-08-12T16:24:53.111Z,94100.75
2023-08-12T16:27:20.276Z,94116.09
2023-08-12T16:29:46.770Z,94113.00
2023-08-12T16:32:13.331Z,94128.09
2023-08-12T16:34:39.771Z,94132.72
2023-08-12T16:37:20.310Z,94139.19
2023-08-12T16:39:47.067Z,94150.19
2023-08-12T16:42:13.757Z,94148.59
2023-08-12T16:44:40.378Z,94148.22
2023-08-12T16:47:13.054Z,94155.38
2023-08-12T16:49:40.477Z,94154.81
2023-08-12T16:52:07.004Z,94160.00
2023-08-12T20:35:57.521Z,94280.94
2023-08-12T20:38:25.859Z,94279.31
2023-08-12T20:40:52.209Z,94269.75
2023-08-12T20:43:18.610Z,94284.72
2023-08-12T20:45:44.991Z,94292.97
2023-08-12T20:48:11.428Z,94284.19
2023-08-12T20:50:51.189Z,94282.59
2023-08-12T20:53:25.740Z,94296.50
2023-08-12T20:55:52.438Z,94293.06
2023-08-12T20:58:25.907Z,94282.66
2023-08-12T21:00:55.457Z,94287.44
2023-08-12T21:03:22.955Z,94286.41
2023-08-12T21:05:55.413Z,94292.53
2023-08-12T21:08:27.351Z,94298.94
2023-08-12T21:10:54.411Z,94296.53
2023-08-12T21:13:21.558Z,94296.50
2023-08-12T21:15:47.907Z,94298.66
2023-08-12T21:18:16.730Z,94300.75
2023-08-12T21:20:44.012Z,94304.25
2023-08-12T21:23:10.376Z,94304.50
2023-08-12T21:25:36.809Z,94304.22
2023-08-12T21:28:03.343Z,94299.97
2023-08-12T21:30:29.863Z,94299.72
2023-08-12T21:32:57.302Z,94334.94
2023-08-12T21:35:23.680Z,94317.72
2023-08-12T21:37:50.020Z,94335.09
2023-08-12T21:40:16.455Z,94338.03
2023-08-12T21:42:42.972Z,94334.66
2023-08-12T21:45:09.498Z,94331.59
2023-08-12T21:47:35.909Z,94334.78
2023-08-12T21:50:02.270Z,94334.16
2023-08-12T21:52:28.939Z,94344.28
2023-08-12T21:54:55.305Z,94340.03
2023-08-12T21:57:21.662Z,94337.63
2023-08-12T21:59:48.014Z,94345.78
2023-08-12T22:02:23.037Z,94343.09
2023-08-12T22:04:49.397Z,94351.59
2023-08-12T22:07:15.746Z,94355.13
2023-08-12T22:09:42.086Z,94360.03
2023-08-12T22:12:08.687Z,94353.72
2023-08-12T22:14:35.488Z,94345.84
2023-08-12T22:17:03.624Z,94344.38
2023-08-12T22:19:30.189Z,94347.47
2023-08-12T22:22:05.444Z,94336.84
2023-08-12T22:24:43.504Z,94325.41
2023-08-12T22:27:09.862Z,94328.84
2023-08-12T22:29:39.225Z,94325.56
2023-08-12T22:32:05.616Z,94330.84
2023-08-12T22:34:31.968Z,94326.41
2023-08-12T22:36:58.308Z,94325.06
2023-08-12T22:39:25.395Z,94323.41
2023-08-12T22:41:51.772Z,94318.75
2023-08-12T22:44:18.111Z,94323.09
2023-08-12T22:46:44.506Z,94311.19
2023-08-12T22:49:10.909Z,94314.59
2023-08-12T22:51:37.864Z,94313.50
2023-08-12T22:54:05.425Z,94312.72
2023-08-12T22:56:31.941Z,94305.88
2023-08-12T22:59:01.066Z,94301.72
2023-08-12T23:01:27.670Z,94302.28
2023-08-12T23:03:54.002Z,94303.31
2023-08-12T23:06:20.436Z,94301.97
2023-08-12T23:08:46.780Z,94295.81
2023-08-12T23:11:13.142Z,94297.94
2023-08-12T23:13:39.478Z,94294.22
2023-08-12T23:16:06.282Z,94294.22
2023-08-12T23:18:32.626Z,94290.47
2023-08-12T23:21:00.079Z,94295.81
2023-08-12T23:23:26.402Z,94286.72
2023-08-12T23:25:52.796Z,94294.31
2023-08-12T23:28:19.822Z,94281.81
2023-08-12T23:30:46.256Z,94283.91
2023-08-12T23:33:12.786Z,94292.13
2023-08-12T23:35:39.183Z,94294.34
2023-08-12T23:38:05.542Z,94290.91
2023-08-12T23:40:31.956Z,94209.53
2023-08-12T23:42:58.382Z,94288.63
2023-08-12T23:45:25.778Z,94290.78
2023-08-12T23:47:52.196Z,94204.06
2023-08-12T23:50:18.722Z,94300.13
2023-08-12T23:52:45.120Z,94289.50
2023-08-12T23:55:11.517Z,94298.34
2023-08-12T23:57:37.943Z,94292.19
